CheckWX is a tool to help pilots better visualize weather data.  It is not intended as a substitute for an official pre-flight weather briefing.

18:34:01 UTC

EGSS TAF
London Stansted Airport
London, United Kingdom
TAF EGSS 181655Z 1818/1924 23009KT 9999 SCT020 PROB40 TEMPO 1818/1820 6000 RA SHRA BKN014 PROB30 1902/1910 4000 BR BKN004

Feb-18@
18:00 UTC

Feb-18 @ 18:00 UTC

Feb-20@
00:00 UTC

Feb-20 @ 00:00 UTC

TAF EGSS 181655Z 1818/1924 23009KT 9999 SCT020
Wind
  • 230° at 9 KTS
Visibility
10,000+ meters
Cloud Levels
  • Scattered at 2,000' AGL

Feb-18@
18:00 UTC

Feb-18 @ 18:00 UTC

Feb-18@
20:00 UTC

Feb-18 @ 20:00 UTC

PROB40 TEMPO 1818/1820 6000 RA SHRA BKN014

Temporary - 40% Likelihood

Temporary - 40% Likelihood during this time.

Visibility
6,003 meters
Conditions
Rain, Rain
Cloud Levels
  • Broken at 1,400' AGL

Feb-19@
02:00 UTC

Feb-19 @ 02:00 UTC

Feb-19@
10:00 UTC

Feb-19 @ 10:00 UTC

PROB30 1902/1910 4000 BR BKN004

Probable - 30% Likelihood

Probable - 30% Likelihood during this time.

Visibility
4,007 meters
Conditions
Mist
Cloud Levels
  • Broken at 400' AGL